sensor_id;sensor_type;location;lat;lon;timestamp;P1;durP1;ratioP1;P2;durP2;ratioP2
21034;SDS011;10676;50.848;3.272;2023-06-22T00:00:52;9.68;;;4.70;;
21034;SDS011;10676;50.848;3.272;2023-06-22T00:03:18;9.88;;;4.90;;
21034;SDS011;10676;50.848;3.272;2023-06-22T00:05:47;9.43;;;5.10;;
21034;SDS011;10676;50.848;3.272;2023-06-22T00:08:14;9.23;;;5.20;;
21034;SDS011;10676;50.848;3.272;2023-06-22T00:10:40;8.63;;;5.07;;
21034;SDS011;10676;50.848;3.272;2023-06-22T00:13:06;8.35;;;5.65;;
21034;SDS011;10676;50.848;3.272;2023-06-22T00:15:33;11.60;;;5.57;;
21034;SDS011;10676;50.848;3.272;2023-06-22T00:17:59;7.22;;;4.82;;
21034;SDS011;10676;50.848;3.272;2023-06-22T00:20:25;8.30;;;4.85;;
21034;SDS011;10676;50.848;3.272;2023-06-22T00:22:53;6.82;;;4.97;;
21034;SDS011;10676;50.848;3.272;2023-06-22T00:25:19;10.57;;;5.85;;
21034;SDS011;10676;50.848;3.272;2023-06-22T00:27:44;11.20;;;5.10;;
21034;SDS011;10676;50.848;3.272;2023-06-22T00:30:10;9.18;;;4.22;;
21034;SDS011;10676;50.848;3.272;2023-06-22T00:32:36;8.50;;;4.90;;
21034;SDS011;10676;50.848;3.272;2023-06-22T00:35:02;8.00;;;4.43;;
21034;SDS011;10676;50.848;3.272;2023-06-22T00:37:27;8.77;;;4.95;;
21034;SDS011;10676;50.848;3.272;2023-06-22T00:39:54;9.32;;;4.70;;
21034;SDS011;10676;50.848;3.272;2023-06-22T00:42:20;9.45;;;5.00;;
21034;SDS011;10676;50.848;3.272;2023-06-22T00:44:46;9.45;;;5.68;;
21034;SDS011;10676;50.848;3.272;2023-06-22T00:47:15;9.82;;;5.50;;
21034;SDS011;10676;50.848;3.272;2023-06-22T00:49:43;8.43;;;5.50;;
21034;SDS011;10676;50.848;3.272;2023-06-22T00:52:10;7.40;;;4.93;;
21034;SDS011;10676;50.848;3.272;2023-06-22T00:54:40;14.15;;;6.10;;
21034;SDS011;10676;50.848;3.272;2023-06-22T00:57:13;9.38;;;5.20;;
21034;SDS011;10676;50.848;3.272;2023-06-22T00:59:41;8.32;;;5.63;;
21034;SDS011;10676;50.848;3.272;2023-06-22T01:02:07;10.35;;;6.20;;
21034;SDS011;10676;50.848;3.272;2023-06-22T01:04:34;8.35;;;5.95;;
21034;SDS011;10676;50.848;3.272;2023-06-22T01:07:08;11.95;;;5.85;;
21034;SDS011;10676;50.848;3.272;2023-06-22T01:10:07;13.55;;;6.25;;
21034;SDS011;10676;50.848;3.272;2023-06-22T01:12:55;9.43;;;6.22;;
21034;SDS011;10676;50.848;3.272;2023-06-22T01:18:11;13.30;;;7.30;;
21034;SDS011;10676;50.848;3.272;2023-06-22T01:20:39;10.38;;;7.10;;
21034;SDS011;10676;50.848;3.272;2023-06-22T01:23:07;11.23;;;6.95;;
21034;SDS011;10676;50.848;3.272;2023-06-22T01:28:50;8.80;;;6.78;;
21034;SDS011;10676;50.848;3.272;2023-06-22T01:31:12;15.65;;;7.53;;
21034;SDS011;10676;50.848;3.272;2023-06-22T01:33:41;9.85;;;6.97;;
21034;SDS011;10676;50.848;3.272;2023-06-22T01:36:08;10.05;;;6.88;;
21034;SDS011;10676;50.848;3.272;2023-06-22T01:38:35;10.00;;;6.68;;
21034;SDS011;10676;50.848;3.272;2023-06-22T01:41:02;14.25;;;6.90;;
21034;SDS011;10676;50.848;3.272;2023-06-22T01:43:29;10.93;;;6.85;;
21034;SDS011;10676;50.848;3.272;2023-06-22T01:45:55;12.38;;;6.95;;
21034;SDS011;10676;50.848;3.272;2023-06-22T01:48:22;12.55;;;7.78;;
21034;SDS011;10676;50.848;3.272;2023-06-22T01:50:48;13.70;;;7.72;;
21034;SDS011;10676;50.848;3.272;2023-06-22T01:53:14;14.77;;;7.75;;
21034;SDS011;10676;50.848;3.272;2023-06-22T01:55:40;12.60;;;7.47;;
21034;SDS011;10676;50.848;3.272;2023-06-22T01:58:05;11.32;;;7.63;;
21034;SDS011;10676;50.848;3.272;2023-06-22T02:00:32;12.02;;;7.80;;
21034;SDS011;10676;50.848;3.272;2023-06-22T02:05:58;11.15;;;6.95;;
21034;SDS011;10676;50.848;3.272;2023-06-22T02:08:36;10.73;;;7.53;;
21034;SDS011;10676;50.848;3.272;2023-06-22T02:11:06;13.60;;;7.95;;
21034;SDS011;10676;50.848;3.272;2023-06-22T02:13:35;12.63;;;8.27;;
21034;SDS011;10676;50.848;3.272;2023-06-22T02:16:02;13.52;;;8.18;;
21034;SDS011;10676;50.848;3.272;2023-06-22T02:18:28;17.85;;;9.30;;
21034;SDS011;10676;50.848;3.272;2023-06-22T02:20:54;15.98;;;9.00;;
21034;SDS011;10676;50.848;3.272;2023-06-22T02:23:20;13.52;;;8.70;;
21034;SDS011;10676;50.848;3.272;2023-06-22T02:25:45;14.18;;;8.75;;
21034;SDS011;10676;50.848;3.272;2023-06-22T02:28:11;15.20;;;9.57;;
21034;SDS011;10676;50.848;3.272;2023-06-22T02:30:37;14.77;;;9.63;;
21034;SDS011;10676;50.848;3.272;2023-06-22T02:33:03;18.65;;;9.00;;
21034;SDS011;10676;50.848;3.272;2023-06-22T02:35:29;14.95;;;8.77;;
21034;SDS011;10676;50.848;3.272;2023-06-22T02:37:57;17.90;;;8.75;;
21034;SDS011;10676;50.848;3.272;2023-06-22T02:40:24;16.85;;;9.00;;
21034;SDS011;10676;50.848;3.272;2023-06-22T02:42:50;14.55;;;9.10;;
21034;SDS011;10676;50.848;3.272;2023-06-22T02:45:15;15.50;;;8.70;;
21034;SDS011;10676;50.848;3.272;2023-06-22T02:47:41;13.25;;;8.55;;
21034;SDS011;10676;50.848;3.272;2023-06-22T02:50:07;17.40;;;9.38;;
21034;SDS011;10676;50.848;3.272;2023-06-22T02:52:33;15.68;;;9.43;;
21034;SDS011;10676;50.848;3.272;2023-06-22T02:54:59;17.23;;;10.15;;
21034;SDS011;10676;50.848;3.272;2023-06-22T02:57:24;19.83;;;10.05;;
21034;SDS011;10676;50.848;3.272;2023-06-22T02:59:50;18.10;;;10.52;;
21034;SDS011;10676;50.848;3.272;2023-06-22T03:02:16;18.88;;;9.98;;
21034;SDS011;10676;50.848;3.272;2023-06-22T03:04:41;20.50;;;9.60;;
21034;SDS011;10676;50.848;3.272;2023-06-22T03:07:08;20.33;;;11.07;;
21034;SDS011;10676;50.848;3.272;2023-06-22T03:09:33;18.58;;;10.18;;
21034;SDS011;10676;50.848;3.272;2023-06-22T03:11:59;19.23;;;9.80;;
21034;SDS011;10676;50.848;3.272;2023-06-22T03:14:27;17.00;;;9.68;;
21034;SDS011;10676;50.848;3.272;2023-06-22T03:16:52;16.27;;;9.75;;
21034;SDS011;10676;50.848;3.272;2023-06-22T03:19:18;18.65;;;10.70;;
21034;SDS011;10676;50.848;3.272;2023-06-22T03:21:44;15.18;;;9.63;;
21034;SDS011;10676;50.848;3.272;2023-06-22T03:24:10;22.40;;;10.85;;
21034;SDS011;10676;50.848;3.272;2023-06-22T03:26:35;20.20;;;10.07;;
21034;SDS011;10676;50.848;3.272;2023-06-22T03:29:01;22.58;;;10.73;;
21034;SDS011;10676;50.848;3.272;2023-06-22T03:31:27;18.10;;;10.48;;
21034;SDS011;10676;50.848;3.272;2023-06-22T03:33:52;18.95;;;11.00;;
21034;SDS011;10676;50.848;3.272;2023-06-22T03:36:18;21.67;;;10.40;;
21034;SDS011;10676;50.848;3.272;2023-06-22T03:38:48;20.30;;;10.27;;
21034;SDS011;10676;50.848;3.272;2023-06-22T03:41:15;19.15;;;9.80;;
21034;SDS011;10676;50.848;3.272;2023-06-22T03:43:41;21.42;;;9.95;;
21034;SDS011;10676;50.848;3.272;2023-06-22T03:46:07;16.20;;;9.85;;
21034;SDS011;10676;50.848;3.272;2023-06-22T03:48:32;19.15;;;10.40;;
21034;SDS011;10676;50.848;3.272;2023-06-22T03:51:01;17.95;;;10.40;;
21034;SDS011;10676;50.848;3.272;2023-06-22T03:53:28;16.90;;;10.38;;
21034;SDS011;10676;50.848;3.272;2023-06-22T03:55:55;17.70;;;9.60;;
21034;SDS011;10676;50.848;3.272;2023-06-22T03:58:21;18.50;;;10.50;;
21034;SDS011;10676;50.848;3.272;2023-06-22T04:00:47;22.17;;;10.90;;
21034;SDS011;10676;50.848;3.272;2023-06-22T04:03:14;15.73;;;10.10;;
21034;SDS011;10676;50.848;3.272;2023-06-22T04:05:40;17.42;;;10.10;;
21034;SDS011;10676;50.848;3.272;2023-06-22T04:08:07;17.58;;;10.50;;
21034;SDS011;10676;50.848;3.272;2023-06-22T04:10:33;15.13;;;10.02;;
21034;SDS011;10676;50.848;3.272;2023-06-22T04:12:59;19.52;;;10.88;;
21034;SDS011;10676;50.848;3.272;2023-06-22T04:15:25;20.23;;;10.93;;
21034;SDS011;10676;50.848;3.272;2023-06-22T04:17:51;19.52;;;10.20;;
21034;SDS011;10676;50.848;3.272;2023-06-22T04:20:16;20.80;;;10.25;;
21034;SDS011;10676;50.848;3.272;2023-06-22T04:22:42;15.95;;;10.00;;
21034;SDS011;10676;50.848;3.272;2023-06-22T04:25:08;19.90;;;10.15;;
21034;SDS011;10676;50.848;3.272;2023-06-22T04:27:33;18.38;;;10.57;;
21034;SDS011;10676;50.848;3.272;2023-06-22T04:30:02;14.15;;;9.27;;
21034;SDS011;10676;50.848;3.272;2023-06-22T04:32:29;15.55;;;9.50;;
21034;SDS011;10676;50.848;3.272;2023-06-22T04:34:54;17.92;;;9.38;;
21034;SDS011;10676;50.848;3.272;2023-06-22T04:37:20;15.93;;;9.57;;
21034;SDS011;10676;50.848;3.272;2023-06-22T04:39:48;20.30;;;9.48;;
21034;SDS011;10676;50.848;3.272;2023-06-22T04:42:14;15.95;;;9.35;;
21034;SDS011;10676;50.848;3.272;2023-06-22T04:44:40;15.65;;;9.57;;
21034;SDS011;10676;50.848;3.272;2023-06-22T04:47:07;13.98;;;9.57;;
21034;SDS011;10676;50.848;3.272;2023-06-22T04:49:36;17.15;;;9.57;;
21034;SDS011;10676;50.848;3.272;2023-06-22T04:52:03;12.43;;;8.60;;
21034;SDS011;10676;50.848;3.272;2023-06-22T04:54:30;12.02;;;7.90;;
21034;SDS011;10676;50.848;3.272;2023-06-22T04:56:59;13.40;;;7.80;;
21034;SDS011;10676;50.848;3.272;2023-06-22T04:59:27;13.98;;;8.10;;
21034;SDS011;10676;50.848;3.272;2023-06-22T05:01:58;13.43;;;8.05;;
21034;SDS011;10676;50.848;3.272;2023-06-22T05:04:25;11.00;;;7.10;;
21034;SDS011;10676;50.848;3.272;2023-06-22T05:06:52;13.23;;;8.25;;
21034;SDS011;10676;50.848;3.272;2023-06-22T05:09:19;11.32;;;7.43;;
21034;SDS011;10676;50.848;3.272;2023-06-22T05:11:45;14.15;;;7.82;;
21034;SDS011;10676;50.848;3.272;2023-06-22T05:14:11;9.73;;;7.03;;
21034;SDS011;10676;50.848;3.272;2023-06-22T05:16:37;12.95;;;7.57;;
21034;SDS011;10676;50.848;3.272;2023-06-22T05:19:03;12.70;;;7.60;;
21034;SDS011;10676;50.848;3.272;2023-06-22T05:21:29;12.50;;;8.15;;
21034;SDS011;10676;50.848;3.272;2023-06-22T05:23:55;15.57;;;8.38;;
21034;SDS011;10676;50.848;3.272;2023-06-22T05:26:27;11.98;;;7.78;;
21034;SDS011;10676;50.848;3.272;2023-06-22T05:28:56;13.90;;;8.05;;
21034;SDS011;10676;50.848;3.272;2023-06-22T05:31:22;13.13;;;8.75;;
21034;SDS011;10676;50.848;3.272;2023-06-22T05:33:49;11.65;;;8.48;;
21034;SDS011;10676;50.848;3.272;2023-06-22T05:36:16;14.45;;;9.85;;
21034;SDS011;10676;50.848;3.272;2023-06-22T05:38:43;13.18;;;9.75;;
21034;SDS011;10676;50.848;3.272;2023-06-22T05:41:09;20.55;;;9.18;;
21034;SDS011;10676;50.848;3.272;2023-06-22T05:43:35;15.13;;;8.02;;
21034;SDS011;10676;50.848;3.272;2023-06-22T05:46:00;15.52;;;8.30;;
21034;SDS011;10676;50.848;3.272;2023-06-22T05:48:27;12.02;;;8.52;;
21034;SDS011;10676;50.848;3.272;2023-06-22T05:50:53;12.00;;;8.20;;
21034;SDS011;10676;50.848;3.272;2023-06-22T05:53:19;11.23;;;8.63;;
21034;SDS011;10676;50.848;3.272;2023-06-22T05:55:45;14.90;;;8.27;;
21034;SDS011;10676;50.848;3.272;2023-06-22T05:58:11;10.75;;;8.07;;
21034;SDS011;10676;50.848;3.272;2023-06-22T06:00:38;11.90;;;8.07;;
21034;SDS011;10676;50.848;3.272;2023-06-22T06:03:04;13.23;;;8.32;;
21034;SDS011;10676;50.848;3.272;2023-06-22T06:05:30;16.50;;;8.30;;
21034;SDS011;10676;50.848;3.272;2023-06-22T06:07:56;13.57;;;9.68;;
21034;SDS011;10676;50.848;3.272;2023-06-22T06:10:22;17.92;;;8.00;;
21034;SDS011;10676;50.848;3.272;2023-06-22T06:12:48;16.52;;;8.55;;
21034;SDS011;10676;50.848;3.272;2023-06-22T06:15:14;14.52;;;8.15;;
21034;SDS011;10676;50.848;3.272;2023-06-22T06:17:49;10.57;;;7.80;;
21034;SDS011;10676;50.848;3.272;2023-06-22T06:20:19;17.17;;;9.00;;
21034;SDS011;10676;50.848;3.272;2023-06-22T06:22:46;13.25;;;7.45;;
21034;SDS011;10676;50.848;3.272;2023-06-22T06:25:12;13.75;;;7.82;;
21034;SDS011;10676;50.848;3.272;2023-06-22T06:27:44;11.10;;;7.38;;
21034;SDS011;10676;50.848;3.272;2023-06-22T06:30:15;15.15;;;7.95;;
21034;SDS011;10676;50.848;3.272;2023-06-22T06:32:42;12.93;;;8.05;;
21034;SDS011;10676;50.848;3.272;2023-06-22T06:35:10;12.05;;;8.10;;
21034;SDS011;10676;50.848;3.272;2023-06-22T06:37:37;13.43;;;8.13;;
21034;SDS011;10676;50.848;3.272;2023-06-22T06:40:05;13.25;;;7.80;;
21034;SDS011;10676;50.848;3.272;2023-06-22T06:42:35;12.55;;;7.90;;
21034;SDS011;10676;50.848;3.272;2023-06-22T06:45:07;11.95;;;7.57;;
21034;SDS011;10676;50.848;3.272;2023-06-22T06:47:33;10.73;;;7.40;;
21034;SDS011;10676;50.848;3.272;2023-06-22T06:49:59;11.57;;;7.25;;
21034;SDS011;10676;50.848;3.272;2023-06-22T06:52:25;12.48;;;7.45;;
21034;SDS011;10676;50.848;3.272;2023-06-22T06:54:51;11.88;;;7.43;;
21034;SDS011;10676;50.848;3.272;2023-06-22T06:57:17;12.63;;;8.00;;
21034;SDS011;10676;50.848;3.272;2023-06-22T06:59:43;12.88;;;7.57;;
21034;SDS011;10676;50.848;3.272;2023-06-22T07:02:09;11.60;;;7.90;;
21034;SDS011;10676;50.848;3.272;2023-06-22T07:04:34;12.43;;;7.88;;
21034;SDS011;10676;50.848;3.272;2023-06-22T07:07:01;11.80;;;7.65;;
21034;SDS011;10676;50.848;3.272;2023-06-22T07:09:28;15.18;;;8.13;;
21034;SDS011;10676;50.848;3.272;2023-06-22T07:11:53;11.13;;;8.15;;
21034;SDS011;10676;50.848;3.272;2023-06-22T07:14:19;11.70;;;7.85;;
21034;SDS011;10676;50.848;3.272;2023-06-22T07:16:44;14.23;;;8.18;;
21034;SDS011;10676;50.848;3.272;2023-06-22T07:19:13;14.85;;;8.90;;
21034;SDS011;10676;50.848;3.272;2023-06-22T07:21:39;13.75;;;8.90;;
21034;SDS011;10676;50.848;3.272;2023-06-22T07:24:05;17.17;;;9.60;;
21034;SDS011;10676;50.848;3.272;2023-06-22T07:26:31;14.13;;;8.63;;
21034;SDS011;10676;50.848;3.272;2023-06-22T07:28:57;15.60;;;9.55;;
21034;SDS011;10676;50.848;3.272;2023-06-22T07:31:26;16.92;;;9.63;;
21034;SDS011;10676;50.848;3.272;2023-06-22T07:33:52;13.48;;;10.30;;
21034;SDS011;10676;50.848;3.272;2023-06-22T07:36:18;17.40;;;10.48;;
21034;SDS011;10676;50.848;3.272;2023-06-22T07:38:43;14.43;;;9.48;;
21034;SDS011;10676;50.848;3.272;2023-06-22T07:41:09;14.82;;;11.30;;
21034;SDS011;10676;50.848;3.272;2023-06-22T07:43:35;16.52;;;11.80;;
21034;SDS011;10676;50.848;3.272;2023-06-22T07:46:05;17.15;;;11.52;;
21034;SDS011;10676;50.848;3.272;2023-06-22T07:48:30;20.58;;;11.85;;
21034;SDS011;10676;50.848;3.272;2023-06-22T07:50:56;19.50;;;12.93;;
21034;SDS011;10676;50.848;3.272;2023-06-22T07:53:22;20.08;;;12.18;;
21034;SDS011;10676;50.848;3.272;2023-06-22T07:55:48;22.48;;;13.18;;
21034;SDS011;10676;50.848;3.272;2023-06-22T07:58:14;22.30;;;12.90;;
21034;SDS011;10676;50.848;3.272;2023-06-22T08:00:40;23.27;;;12.20;;
21034;SDS011;10676;50.848;3.272;2023-06-22T08:03:06;20.75;;;12.52;;
21034;SDS011;10676;50.848;3.272;2023-06-22T08:05:32;22.17;;;12.23;;
21034;SDS011;10676;50.848;3.272;2023-06-22T08:07:57;23.77;;;12.82;;
21034;SDS011;10676;50.848;3.272;2023-06-22T08:10:23;18.42;;;12.98;;
21034;SDS011;10676;50.848;3.272;2023-06-22T08:12:49;16.98;;;12.77;;
21034;SDS011;10676;50.848;3.272;2023-06-22T08:15:16;24.02;;;12.73;;
21034;SDS011;10676;50.848;3.272;2023-06-22T08:17:42;22.23;;;12.98;;
21034;SDS011;10676;50.848;3.272;2023-06-22T08:20:09;19.17;;;13.82;;
21034;SDS011;10676;50.848;3.272;2023-06-22T08:22:37;19.80;;;12.63;;
21034;SDS011;10676;50.848;3.272;2023-06-22T08:25:03;18.73;;;12.77;;
21034;SDS011;10676;50.848;3.272;2023-06-22T08:27:29;23.95;;;12.65;;
21034;SDS011;10676;50.848;3.272;2023-06-22T08:29:59;18.58;;;12.45;;
21034;SDS011;10676;50.848;3.272;2023-06-22T08:32:28;20.10;;;13.35;;
21034;SDS011;10676;50.848;3.272;2023-06-22T08:34:54;23.73;;;13.38;;
21034;SDS011;10676;50.848;3.272;2023-06-22T08:37:21;20.75;;;13.18;;
21034;SDS011;10676;50.848;3.272;2023-06-22T08:39:55;21.73;;;13.55;;
21034;SDS011;10676;50.848;3.272;2023-06-22T08:42:21;19.48;;;13.13;;
21034;SDS011;10676;50.848;3.272;2023-06-22T08:44:49;21.27;;;12.48;;
21034;SDS011;10676;50.848;3.272;2023-06-22T08:47:15;23.17;;;13.15;;
21034;SDS011;10676;50.848;3.272;2023-06-22T08:49:40;22.70;;;13.07;;
21034;SDS011;10676;50.848;3.272;2023-06-22T08:52:06;22.08;;;14.07;;
21034;SDS011;10676;50.848;3.272;2023-06-22T08:54:32;21.23;;;13.68;;
21034;SDS011;10676;50.848;3.272;2023-06-22T08:56:59;21.10;;;14.38;;
21034;SDS011;10676;50.848;3.272;2023-06-22T08:59:25;18.42;;;13.00;;
21034;SDS011;10676;50.848;3.272;2023-06-22T09:01:51;23.13;;;14.60;;
21034;SDS011;10676;50.848;3.272;2023-06-22T09:04:17;28.40;;;15.80;;
21034;SDS011;10676;50.848;3.272;2023-06-22T09:06:42;23.85;;;15.10;;
21034;SDS011;10676;50.848;3.272;2023-06-22T09:09:12;25.80;;;15.73;;
21034;SDS011;10676;50.848;3.272;2023-06-22T09:11:38;19.48;;;14.75;;
21034;SDS011;10676;50.848;3.272;2023-06-22T09:14:04;21.92;;;15.50;;
21034;SDS011;10676;50.848;3.272;2023-06-22T09:16:30;21.25;;;15.38;;
21034;SDS011;10676;50.848;3.272;2023-06-22T09:18:55;24.52;;;15.40;;
21034;SDS011;10676;50.848;3.272;2023-06-22T09:21:21;22.70;;;15.38;;
21034;SDS011;10676;50.848;3.272;2023-06-22T09:23:47;21.10;;;15.32;;
21034;SDS011;10676;50.848;3.272;2023-06-22T09:26:16;25.80;;;15.98;;
21034;SDS011;10676;50.848;3.272;2023-06-22T09:28:42;29.40;;;16.65;;
21034;SDS011;10676;50.848;3.272;2023-06-22T09:31:08;25.20;;;15.98;;
21034;SDS011;10676;50.848;3.272;2023-06-22T09:33:33;28.40;;;17.00;;
21034;SDS011;10676;50.848;3.272;2023-06-22T09:36:00;31.88;;;16.98;;
21034;SDS011;10676;50.848;3.272;2023-06-22T09:38:25;28.23;;;16.92;;
21034;SDS011;10676;50.848;3.272;2023-06-22T09:40:51;27.00;;;17.00;;
21034;SDS011;10676;50.848;3.272;2023-06-22T09:43:16;23.80;;;16.35;;
21034;SDS011;10676;50.848;3.272;2023-06-22T09:45:42;28.00;;;17.75;;
21034;SDS011;10676;50.848;3.272;2023-06-22T09:48:08;26.90;;;17.05;;
21034;SDS011;10676;50.848;3.272;2023-06-22T09:50:35;27.88;;;17.58;;
21034;SDS011;10676;50.848;3.272;2023-06-22T09:53:01;28.85;;;17.55;;
21034;SDS011;10676;50.848;3.272;2023-06-22T09:55:27;24.67;;;17.33;;
21034;SDS011;10676;50.848;3.272;2023-06-22T09:57:52;28.33;;;17.10;;
21034;SDS011;10676;50.848;3.272;2023-06-22T10:00:19;29.15;;;16.77;;
21034;SDS011;10676;50.848;3.272;2023-06-22T10:02:46;28.23;;;17.17;;
21034;SDS011;10676;50.848;3.272;2023-06-22T10:05:12;26.80;;;16.92;;
21034;SDS011;10676;50.848;3.272;2023-06-22T10:07:38;27.17;;;16.65;;
21034;SDS011;10676;50.848;3.272;2023-06-22T10:10:07;26.65;;;16.60;;
21034;SDS011;10676;50.848;3.272;2023-06-22T10:12:33;25.42;;;16.45;;
21034;SDS011;10676;50.848;3.272;2023-06-22T10:14:59;25.92;;;17.10;;
21034;SDS011;10676;50.848;3.272;2023-06-22T10:17:24;26.95;;;17.00;;
21034;SDS011;10676;50.848;3.272;2023-06-22T10:19:50;27.98;;;18.38;;
21034;SDS011;10676;50.848;3.272;2023-06-22T10:22:16;27.20;;;16.30;;
21034;SDS011;10676;50.848;3.272;2023-06-22T10:24:41;25.75;;;17.77;;
21034;SDS011;10676;50.848;3.272;2023-06-22T10:27:11;28.80;;;18.13;;
21034;SDS011;10676;50.848;3.272;2023-06-22T10:29:37;25.33;;;17.15;;
21034;SDS011;10676;50.848;3.272;2023-06-22T10:32:02;23.20;;;16.05;;
21034;SDS011;10676;50.848;3.272;2023-06-22T10:34:28;24.60;;;16.73;;
21034;SDS011;10676;50.848;3.272;2023-06-22T10:36:54;23.67;;;16.23;;
21034;SDS011;10676;50.848;3.272;2023-06-22T10:39:20;25.42;;;17.60;;
21034;SDS011;10676;50.848;3.272;2023-06-22T10:41:45;27.33;;;16.33;;
21034;SDS011;10676;50.848;3.272;2023-06-22T10:44:11;24.52;;;16.77;;
21034;SDS011;10676;50.848;3.272;2023-06-22T10:46:37;29.65;;;17.75;;
21034;SDS011;10676;50.848;3.272;2023-06-22T10:49:03;25.15;;;17.42;;
21034;SDS011;10676;50.848;3.272;2023-06-22T10:51:29;23.65;;;16.65;;
21034;SDS011;10676;50.848;3.272;2023-06-22T10:53:56;26.48;;;17.58;;
21034;SDS011;10676;50.848;3.272;2023-06-22T10:56:22;26.08;;;17.13;;
21034;SDS011;10676;50.848;3.272;2023-06-22T10:58:47;26.85;;;17.10;;
21034;SDS011;10676;50.848;3.272;2023-06-22T11:01:13;24.35;;;17.63;;
21034;SDS011;10676;50.848;3.272;2023-06-22T11:03:39;28.50;;;18.90;;
21034;SDS011;10676;50.848;3.272;2023-06-22T11:06:05;25.55;;;17.15;;
21034;SDS011;10676;50.848;3.272;2023-06-22T11:08:30;24.45;;;18.45;;
21034;SDS011;10676;50.848;3.272;2023-06-22T11:10:56;26.08;;;17.58;;
21034;SDS011;10676;50.848;3.272;2023-06-22T11:13:21;25.55;;;17.55;;
21034;SDS011;10676;50.848;3.272;2023-06-22T11:15:47;28.75;;;18.20;;
21034;SDS011;10676;50.848;3.272;2023-06-22T11:18:13;28.98;;;18.60;;
21034;SDS011;10676;50.848;3.272;2023-06-22T11:20:38;33.63;;;18.45;;
21034;SDS011;10676;50.848;3.272;2023-06-22T11:23:05;27.52;;;18.65;;
21034;SDS011;10676;50.848;3.272;2023-06-22T11:25:31;29.02;;;19.05;;
21034;SDS011;10676;50.848;3.272;2023-06-22T11:27:59;27.60;;;17.30;;
21034;SDS011;10676;50.848;3.272;2023-06-22T11:30:28;23.58;;;16.35;;
21034;SDS011;10676;50.848;3.272;2023-06-22T11:32:54;26.23;;;18.30;;
21034;SDS011;10676;50.848;3.272;2023-06-22T11:35:21;27.67;;;18.00;;
21034;SDS011;10676;50.848;3.272;2023-06-22T11:37:48;27.40;;;17.98;;
21034;SDS011;10676;50.848;3.272;2023-06-22T11:40:13;25.73;;;16.98;;
21034;SDS011;10676;50.848;3.272;2023-06-22T11:42:39;23.38;;;15.73;;
21034;SDS011;10676;50.848;3.272;2023-06-22T11:45:04;27.20;;;15.32;;
21034;SDS011;10676;50.848;3.272;2023-06-22T11:47:31;25.67;;;14.68;;
21034;SDS011;10676;50.848;3.272;2023-06-22T11:49:57;21.75;;;14.77;;
21034;SDS011;10676;50.848;3.272;2023-06-22T11:52:22;24.73;;;16.27;;
21034;SDS011;10676;50.848;3.272;2023-06-22T11:54:48;30.95;;;17.17;;
21034;SDS011;10676;50.848;3.272;2023-06-22T11:57:13;25.52;;;16.15;;
21034;SDS011;10676;50.848;3.272;2023-06-22T11:59:39;23.15;;;15.88;;
21034;SDS011;10676;50.848;3.272;2023-06-22T12:02:05;25.73;;;16.88;;
21034;SDS011;10676;50.848;3.272;2023-06-22T12:04:32;23.58;;;16.33;;
21034;SDS011;10676;50.848;3.272;2023-06-22T12:06:58;26.55;;;17.83;;
21034;SDS011;10676;50.848;3.272;2023-06-22T12:09:23;28.08;;;18.40;;
21034;SDS011;10676;50.848;3.272;2023-06-22T12:11:49;26.55;;;18.05;;
21034;SDS011;10676;50.848;3.272;2023-06-22T12:14:14;30.83;;;18.35;;
21034;SDS011;10676;50.848;3.272;2023-06-22T12:16:40;26.45;;;18.50;;
21034;SDS011;10676;50.848;3.272;2023-06-22T12:19:06;32.80;;;17.55;;
21034;SDS011;10676;50.848;3.272;2023-06-22T12:21:32;28.25;;;17.55;;
21034;SDS011;10676;50.848;3.272;2023-06-22T12:23:57;30.40;;;18.02;;
21034;SDS011;10676;50.848;3.272;2023-06-22T12:26:23;30.27;;;16.35;;
21034;SDS011;10676;50.848;3.272;2023-06-22T12:28:48;26.95;;;16.67;;
21034;SDS011;10676;50.848;3.272;2023-06-22T12:31:14;24.83;;;16.88;;
21034;SDS011;10676;50.848;3.272;2023-06-22T12:33:40;26.55;;;15.85;;
21034;SDS011;10676;50.848;3.272;2023-06-22T12:36:06;26.50;;;15.70;;
21034;SDS011;10676;50.848;3.272;2023-06-22T12:38:32;27.58;;;15.40;;
21034;SDS011;10676;50.848;3.272;2023-06-22T12:40:58;26.73;;;16.13;;
21034;SDS011;10676;50.848;3.272;2023-06-22T12:43:24;22.17;;;14.52;;
21034;SDS011;10676;50.848;3.272;2023-06-22T12:45:49;25.10;;;14.98;;
21034;SDS011;10676;50.848;3.272;2023-06-22T12:48:15;25.70;;;15.18;;
21034;SDS011;10676;50.848;3.272;2023-06-22T12:50:41;24.38;;;15.13;;
21034;SDS011;10676;50.848;3.272;2023-06-22T12:53:07;25.95;;;15.80;;
21034;SDS011;10676;50.848;3.272;2023-06-22T12:55:33;24.83;;;15.75;;
21034;SDS011;10676;50.848;3.272;2023-06-22T12:57:58;26.83;;;15.60;;
21034;SDS011;10676;50.848;3.272;2023-06-22T13:00:24;24.67;;;16.08;;
21034;SDS011;10676;50.848;3.272;2023-06-22T13:02:50;22.20;;;14.52;;
21034;SDS011;10676;50.848;3.272;2023-06-22T13:05:15;24.40;;;15.82;;
21034;SDS011;10676;50.848;3.272;2023-06-22T13:07:41;23.17;;;14.73;;
21034;SDS011;10676;50.848;3.272;2023-06-22T13:10:07;25.35;;;15.23;;
21034;SDS011;10676;50.848;3.272;2023-06-22T13:12:33;24.00;;;15.15;;
21034;SDS011;10676;50.848;3.272;2023-06-22T13:14:59;22.90;;;15.07;;
21034;SDS011;10676;50.848;3.272;2023-06-22T13:17:25;24.50;;;15.27;;
21034;SDS011;10676;50.848;3.272;2023-06-22T13:19:50;23.08;;;15.95;;
21034;SDS011;10676;50.848;3.272;2023-06-22T13:22:30;26.77;;;16.90;;
21034;SDS011;10676;50.848;3.272;2023-06-22T13:24:57;30.77;;;17.55;;
21034;SDS011;10676;50.848;3.272;2023-06-22T13:27:23;27.73;;;16.60;;
21034;SDS011;10676;50.848;3.272;2023-06-22T13:29:49;27.85;;;18.00;;
21034;SDS011;10676;50.848;3.272;2023-06-22T13:32:14;33.35;;;18.15;;
21034;SDS011;10676;50.848;3.272;2023-06-22T13:34:40;27.23;;;17.75;;
21034;SDS011;10676;50.848;3.272;2023-06-22T13:37:06;25.27;;;17.00;;
21034;SDS011;10676;50.848;3.272;2023-06-22T13:39:32;27.08;;;16.60;;
21034;SDS011;10676;50.848;3.272;2023-06-22T13:41:58;22.90;;;14.77;;
21034;SDS011;10676;50.848;3.272;2023-06-22T13:44:23;23.60;;;15.15;;
21034;SDS011;10676;50.848;3.272;2023-06-22T13:46:53;22.60;;;13.77;;
21034;SDS011;10676;50.848;3.272;2023-06-22T13:49:22;21.58;;;14.40;;
21034;SDS011;10676;50.848;3.272;2023-06-22T13:51:48;22.05;;;13.27;;
21034;SDS011;10676;50.848;3.272;2023-06-22T13:54:14;20.35;;;13.88;;
21034;SDS011;10676;50.848;3.272;2023-06-22T13:56:40;21.85;;;14.07;;
21034;SDS011;10676;50.848;3.272;2023-06-22T13:59:05;21.88;;;14.60;;
21034;SDS011;10676;50.848;3.272;2023-06-22T14:01:34;20.67;;;13.63;;
21034;SDS011;10676;50.848;3.272;2023-06-22T14:04:00;21.70;;;14.50;;
21034;SDS011;10676;50.848;3.272;2023-06-22T14:06:27;21.90;;;14.13;;
21034;SDS011;10676;50.848;3.272;2023-06-22T14:08:53;23.00;;;14.07;;
21034;SDS011;10676;50.848;3.272;2023-06-22T14:11:18;21.10;;;13.82;;
21034;SDS011;10676;50.848;3.272;2023-06-22T14:13:44;19.73;;;13.45;;
21034;SDS011;10676;50.848;3.272;2023-06-22T14:16:10;20.60;;;13.48;;
21034;SDS011;10676;50.848;3.272;2023-06-22T14:18:36;19.63;;;12.88;;
21034;SDS011;10676;50.848;3.272;2023-06-22T14:21:01;19.80;;;12.05;;
21034;SDS011;10676;50.848;3.272;2023-06-22T14:23:27;19.08;;;12.45;;
21034;SDS011;10676;50.848;3.272;2023-06-22T14:25:52;20.95;;;12.40;;
21034;SDS011;10676;50.848;3.272;2023-06-22T14:28:18;21.83;;;13.02;;
21034;SDS011;10676;50.848;3.272;2023-06-22T14:30:44;18.70;;;11.93;;
21034;SDS011;10676;50.848;3.272;2023-06-22T14:33:09;15.32;;;9.85;;